FR-0206 weather

Centre de Secours de Courchevel Heliport
Courchevel, Rhône Alpes, France

Public forecast

Using degrees Celsius for public forecast. Weather courtesy of forecast.io.

METAR (pilot weather report)

Closest report is Chambéry-Savoie Airport, 34.4 nm (63.7 km) WNW. Retrieved 2019/07/22 09:30 UTC (0 seconds ago):

LFLB 220930Z AUTO 01007KT CAVOK 29/16 Q1023 NOSIG

TAF (pilot weather forecast)

Closest forecast is Chambéry-Savoie Airport, 34.4 nm (63.7 km) WNW. Retrieved 2019/07/22 06:21 UTC (3 hours ago):

TAF LFBI 220500Z 2206/2306 02005KT CAVOK= TAF LFLB 220500Z 2206/2306 VRB02KT CAVOK BECMG 2209/2211 34010KT BECMG 2220/2222 VRB03KT